Kingston, Nevada
Current Conditions -  °F | °C
As of 4:15 PM on Wednesday 26 Nov 2014 (Local Time) from K05U Reporting Station
Clear Clear  
Wind Chill: 57°   Ceiling: Unl
Heat Index: 57°   Visibility: 10mi
Dew Point: 19°   Wind: 0mph
Humidity: 23%   Direction: NA
Pressure: 30.4"   Gusts: NA
Location:  39.7407°N, 117.085°W
Report Text: K05U 270015Z AUTO 00000KT 10SM CLR 14/M07 A3040 RMK AO1
Loading
Personal Weather Stations






























Interactive Weather Map New forecast layout! Learn more

10-Day Weather Forecast

Advertisements
Track Severe Weather on mobile